sensor_id;sensor_type;location;lat;lon;timestamp;P1;durP1;ratioP1;P2;durP2;ratioP2
2624;SDS011;1322;53.256;10.386;2022-08-01T00:01:04;9.73;;;8.83;;
2624;SDS011;1322;53.256;10.386;2022-08-01T00:03:30;9.90;;;8.90;;
2624;SDS011;1322;53.256;10.386;2022-08-01T00:05:55;9.53;;;8.60;;
2624;SDS011;1322;53.256;10.386;2022-08-01T00:08:21;11.00;;;9.90;;
2624;SDS011;1322;53.256;10.386;2022-08-01T00:10:47;10.57;;;9.47;;
2624;SDS011;1322;53.256;10.386;2022-08-01T00:13:12;12.03;;;10.13;;
2624;SDS011;1322;53.256;10.386;2022-08-01T00:15:38;10.87;;;9.77;;
2624;SDS011;1322;53.256;10.386;2022-08-01T00:18:03;12.53;;;11.10;;
2624;SDS011;1322;53.256;10.386;2022-08-01T00:20:29;10.60;;;9.33;;
2624;SDS011;1322;53.256;10.386;2022-08-01T00:22:55;12.30;;;9.80;;
2624;SDS011;1322;53.256;10.386;2022-08-01T00:25:20;11.40;;;10.30;;
2624;SDS011;1322;53.256;10.386;2022-08-01T00:27:46;10.53;;;8.80;;
2624;SDS011;1322;53.256;10.386;2022-08-01T00:30:11;10.60;;;9.50;;
2624;SDS011;1322;53.256;10.386;2022-08-01T00:32:41;12.57;;;11.37;;
2624;SDS011;1322;53.256;10.386;2022-08-01T00:35:07;11.60;;;9.43;;
2624;SDS011;1322;53.256;10.386;2022-08-01T00:37:33;10.93;;;9.43;;
2624;SDS011;1322;53.256;10.386;2022-08-01T00:39:58;10.87;;;9.77;;
2624;SDS011;1322;53.256;10.386;2022-08-01T00:42:24;12.43;;;9.70;;
2624;SDS011;1322;53.256;10.386;2022-08-01T00:44:49;14.03;;;11.20;;
2624;SDS011;1322;53.256;10.386;2022-08-01T00:47:15;10.67;;;9.67;;
2624;SDS011;1322;53.256;10.386;2022-08-01T00:49:41;11.20;;;10.10;;
2624;SDS011;1322;53.256;10.386;2022-08-01T00:52:06;11.60;;;10.50;;
2624;SDS011;1322;53.256;10.386;2022-08-01T00:54:34;11.67;;;10.60;;
2624;SDS011;1322;53.256;10.386;2022-08-01T00:57:00;11.50;;;10.40;;
2624;SDS011;1322;53.256;10.386;2022-08-01T00:59:27;11.93;;;10.77;;
2624;SDS011;1322;53.256;10.386;2022-08-01T01:01:53;11.57;;;10.47;;
2624;SDS011;1322;53.256;10.386;2022-08-01T01:04:18;10.33;;;9.43;;
2624;SDS011;1322;53.256;10.386;2022-08-01T01:17:41;11.97;;;10.87;;
2624;SDS011;1322;53.256;10.386;2022-08-01T01:20:18;10.60;;;9.57;;
2624;SDS011;1322;53.256;10.386;2022-08-01T01:23:00;10.93;;;9.60;;
2624;SDS011;1322;53.256;10.386;2022-08-01T01:26:04;11.40;;;10.23;;
2624;SDS011;1322;53.256;10.386;2022-08-01T01:31:22;10.40;;;9.40;;
2624;SDS011;1322;53.256;10.386;2022-08-01T01:33:51;11.80;;;10.30;;
2624;SDS011;1322;53.256;10.386;2022-08-01T01:36:18;10.87;;;9.83;;
2624;SDS011;1322;53.256;10.386;2022-08-01T01:38:46;11.17;;;10.07;;
2624;SDS011;1322;53.256;10.386;2022-08-01T01:41:14;11.10;;;9.93;;
2624;SDS011;1322;53.256;10.386;2022-08-01T01:43:42;9.93;;;9.00;;
2624;SDS011;1322;53.256;10.386;2022-08-01T01:46:10;11.93;;;10.63;;
2624;SDS011;1322;53.256;10.386;2022-08-01T01:48:40;10.53;;;9.53;;
2624;SDS011;1322;53.256;10.386;2022-08-01T01:51:13;12.87;;;10.00;;
2624;SDS011;1322;53.256;10.386;2022-08-01T01:53:43;11.97;;;10.77;;
2624;SDS011;1322;53.256;10.386;2022-08-01T01:56:11;11.07;;;9.97;;
2624;SDS011;1322;53.256;10.386;2022-08-01T01:58:41;12.50;;;11.30;;
2624;SDS011;1322;53.256;10.386;2022-08-01T02:01:09;12.00;;;10.67;;
2624;SDS011;1322;53.256;10.386;2022-08-01T02:07:01;11.50;;;10.40;;
2624;SDS011;1322;53.256;10.386;2022-08-01T02:09:28;11.50;;;10.40;;
2624;SDS011;1322;53.256;10.386;2022-08-01T02:11:55;13.70;;;10.80;;
2624;SDS011;1322;53.256;10.386;2022-08-01T02:14:23;11.67;;;10.47;;
2624;SDS011;1322;53.256;10.386;2022-08-01T02:16:52;11.90;;;10.70;;
2624;SDS011;1322;53.256;10.386;2022-08-01T02:19:19;11.30;;;10.03;;
2624;SDS011;1322;53.256;10.386;2022-08-01T02:21:51;11.53;;;10.43;;
2624;SDS011;1322;53.256;10.386;2022-08-01T02:24:24;10.10;;;9.17;;
2624;SDS011;1322;53.256;10.386;2022-08-01T02:27:37;12.30;;;10.27;;
2624;SDS011;1322;53.256;10.386;2022-08-01T02:30:03;11.40;;;10.20;;
2624;SDS011;1322;53.256;10.386;2022-08-01T02:32:31;12.00;;;10.03;;
2624;SDS011;1322;53.256;10.386;2022-08-01T02:35:01;11.43;;;9.80;;
2624;SDS011;1322;53.256;10.386;2022-08-01T02:37:31;16.33;;;10.57;;
2624;SDS011;1322;53.256;10.386;2022-08-01T02:39:59;10.87;;;9.77;;
2624;SDS011;1322;53.256;10.386;2022-08-01T02:42:26;11.43;;;10.00;;
2624;SDS011;1322;53.256;10.386;2022-08-01T02:44:55;11.30;;;10.10;;
2624;SDS011;1322;53.256;10.386;2022-08-01T02:47:22;10.43;;;9.33;;
2624;SDS011;1322;53.256;10.386;2022-08-01T02:49:50;10.63;;;9.07;;
2624;SDS011;1322;53.256;10.386;2022-08-01T02:52:18;12.20;;;10.70;;
2624;SDS011;1322;53.256;10.386;2022-08-01T02:54:47;11.97;;;10.70;;
2624;SDS011;1322;53.256;10.386;2022-08-01T02:57:16;15.27;;;10.07;;
2624;SDS011;1322;53.256;10.386;2022-08-01T02:59:44;14.90;;;10.00;;
2624;SDS011;1322;53.256;10.386;2022-08-01T03:02:12;11.43;;;10.10;;
2624;SDS011;1322;53.256;10.386;2022-08-01T03:04:40;16.10;;;10.10;;
2624;SDS011;1322;53.256;10.386;2022-08-01T03:07:07;12.90;;;9.00;;
2624;SDS011;1322;53.256;10.386;2022-08-01T03:09:36;10.60;;;9.50;;
2624;SDS011;1322;53.256;10.386;2022-08-01T03:12:06;12.00;;;9.50;;
2624;SDS011;1322;53.256;10.386;2022-08-01T03:14:36;11.70;;;9.33;;
2624;SDS011;1322;53.256;10.386;2022-08-01T03:17:04;11.47;;;7.83;;
2624;SDS011;1322;53.256;10.386;2022-08-01T03:19:32;9.33;;;8.20;;
2624;SDS011;1322;53.256;10.386;2022-08-01T03:21:58;8.40;;;7.53;;
2624;SDS011;1322;53.256;10.386;2022-08-01T03:24:28;9.13;;;8.23;;
2624;SDS011;1322;53.256;10.386;2022-08-01T03:26:56;8.33;;;7.57;;
2624;SDS011;1322;53.256;10.386;2022-08-01T03:29:24;10.93;;;8.03;;
2624;SDS011;1322;53.256;10.386;2022-08-01T03:31:52;8.83;;;7.07;;
2624;SDS011;1322;53.256;10.386;2022-08-01T03:34:18;8.07;;;6.60;;
2624;SDS011;1322;53.256;10.386;2022-08-01T03:36:56;9.27;;;8.37;;
2624;SDS011;1322;53.256;10.386;2022-08-01T03:39:29;7.73;;;6.27;;
2624;SDS011;1322;53.256;10.386;2022-08-01T03:42:05;7.60;;;6.80;;
2624;SDS011;1322;53.256;10.386;2022-08-01T03:44:36;7.63;;;6.43;;
2624;SDS011;1322;53.256;10.386;2022-08-01T03:47:05;6.77;;;6.07;;
2624;SDS011;1322;53.256;10.386;2022-08-01T03:49:35;6.87;;;6.17;;
2624;SDS011;1322;53.256;10.386;2022-08-01T03:52:06;6.30;;;5.70;;
2624;SDS011;1322;53.256;10.386;2022-08-01T03:54:36;6.90;;;5.80;;
2624;SDS011;1322;53.256;10.386;2022-08-01T03:57:05;5.93;;;5.30;;
2624;SDS011;1322;53.256;10.386;2022-08-01T03:59:31;6.07;;;5.33;;
2624;SDS011;1322;53.256;10.386;2022-08-01T04:01:59;7.10;;;5.17;;
2624;SDS011;1322;53.256;10.386;2022-08-01T04:04:25;8.33;;;6.20;;
2624;SDS011;1322;53.256;10.386;2022-08-01T04:06:51;9.40;;;6.00;;
2624;SDS011;1322;53.256;10.386;2022-08-01T04:09:18;9.27;;;6.00;;
2624;SDS011;1322;53.256;10.386;2022-08-01T04:11:45;8.27;;;6.03;;
2624;SDS011;1322;53.256;10.386;2022-08-01T04:14:11;5.47;;;4.97;;
2624;SDS011;1322;53.256;10.386;2022-08-01T04:16:36;6.30;;;5.57;;
2624;SDS011;1322;53.256;10.386;2022-08-01T04:19:02;6.20;;;5.60;;
2624;SDS011;1322;53.256;10.386;2022-08-01T04:21:28;6.63;;;6.03;;
2624;SDS011;1322;53.256;10.386;2022-08-01T04:23:57;7.40;;;4.97;;
2624;SDS011;1322;53.256;10.386;2022-08-01T04:26:26;5.20;;;4.70;;
2624;SDS011;1322;53.256;10.386;2022-08-01T04:28:53;5.33;;;4.83;;
2624;SDS011;1322;53.256;10.386;2022-08-01T04:31:20;11.73;;;5.57;;
2624;SDS011;1322;53.256;10.386;2022-08-01T04:33:50;6.90;;;4.73;;
2624;SDS011;1322;53.256;10.386;2022-08-01T04:36:19;6.60;;;5.67;;
2624;SDS011;1322;53.256;10.386;2022-08-01T04:38:48;6.10;;;5.23;;
2624;SDS011;1322;53.256;10.386;2022-08-01T04:41:19;5.60;;;5.03;;
2624;SDS011;1322;53.256;10.386;2022-08-01T04:43:47;6.37;;;5.77;;
2624;SDS011;1322;53.256;10.386;2022-08-01T04:46:12;5.97;;;5.33;;
2624;SDS011;1322;53.256;10.386;2022-08-01T04:48:39;11.13;;;5.23;;
2624;SDS011;1322;53.256;10.386;2022-08-01T04:51:11;6.40;;;4.43;;
2624;SDS011;1322;53.256;10.386;2022-08-01T04:53:41;6.63;;;5.10;;
2624;SDS011;1322;53.256;10.386;2022-08-01T04:56:07;11.43;;;4.63;;
2624;SDS011;1322;53.256;10.386;2022-08-01T04:58:33;5.03;;;4.50;;
2624;SDS011;1322;53.256;10.386;2022-08-01T05:00:58;7.57;;;4.43;;
2624;SDS011;1322;53.256;10.386;2022-08-01T05:03:24;5.33;;;4.03;;
2624;SDS011;1322;53.256;10.386;2022-08-01T05:05:50;4.77;;;4.37;;
2624;SDS011;1322;53.256;10.386;2022-08-01T05:08:16;5.10;;;4.40;;
2624;SDS011;1322;53.256;10.386;2022-08-01T05:10:41;4.80;;;3.97;;
2624;SDS011;1322;53.256;10.386;2022-08-01T05:13:07;4.10;;;3.47;;
2624;SDS011;1322;53.256;10.386;2022-08-01T05:15:34;4.97;;;4.57;;
2624;SDS011;1322;53.256;10.386;2022-08-01T05:18:01;3.97;;;3.63;;
2624;SDS011;1322;53.256;10.386;2022-08-01T05:20:27;5.00;;;3.30;;
2624;SDS011;1322;53.256;10.386;2022-08-01T14:21:22;6.83;;;1.90;;
2624;SDS011;1322;53.256;10.386;2022-08-01T14:23:48;4.67;;;1.80;;
2624;SDS011;1322;53.256;10.386;2022-08-01T14:26:14;4.20;;;1.80;;
2624;SDS011;1322;53.256;10.386;2022-08-01T14:28:39;5.10;;;1.80;;
2624;SDS011;1322;53.256;10.386;2022-08-01T14:31:05;3.33;;;2.40;;
2624;SDS011;1322;53.256;10.386;2022-08-01T14:33:31;7.57;;;1.80;;
2624;SDS011;1322;53.256;10.386;2022-08-01T14:35:57;7.80;;;2.50;;
2624;SDS011;1322;53.256;10.386;2022-08-01T14:38:22;7.60;;;1.93;;
2624;SDS011;1322;53.256;10.386;2022-08-01T14:40:48;5.30;;;2.10;;
2624;SDS011;1322;53.256;10.386;2022-08-01T14:43:16;7.63;;;2.87;;
2624;SDS011;1322;53.256;10.386;2022-08-01T14:45:43;4.73;;;1.77;;
2624;SDS011;1322;53.256;10.386;2022-08-01T14:48:09;2.97;;;1.43;;
2624;SDS011;1322;53.256;10.386;2022-08-01T14:50:34;6.10;;;2.70;;
2624;SDS011;1322;53.256;10.386;2022-08-01T14:53:00;13.03;;;1.90;;
2624;SDS011;1322;53.256;10.386;2022-08-01T14:55:26;3.73;;;1.60;;
2624;SDS011;1322;53.256;10.386;2022-08-01T14:57:52;11.10;;;2.20;;
2624;SDS011;1322;53.256;10.386;2022-08-01T15:00:18;5.00;;;1.90;;
2624;SDS011;1322;53.256;10.386;2022-08-01T15:02:44;10.07;;;1.80;;
2624;SDS011;1322;53.256;10.386;2022-08-01T15:05:10;5.17;;;1.60;;
2624;SDS011;1322;53.256;10.386;2022-08-01T15:07:36;7.53;;;2.50;;
2624;SDS011;1322;53.256;10.386;2022-08-01T15:10:03;6.40;;;1.83;;
2624;SDS011;1322;53.256;10.386;2022-08-01T15:12:29;2.97;;;1.90;;
2624;SDS011;1322;53.256;10.386;2022-08-01T15:14:55;3.07;;;1.63;;
2624;SDS011;1322;53.256;10.386;2022-08-01T15:17:22;5.13;;;1.73;;
2624;SDS011;1322;53.256;10.386;2022-08-01T15:19:54;4.77;;;1.80;;
2624;SDS011;1322;53.256;10.386;2022-08-01T15:22:21;6.43;;;1.90;;
2624;SDS011;1322;53.256;10.386;2022-08-01T15:24:49;6.10;;;1.60;;
2624;SDS011;1322;53.256;10.386;2022-08-01T15:27:15;4.23;;;1.83;;
2624;SDS011;1322;53.256;10.386;2022-08-01T15:29:41;5.50;;;1.60;;
2624;SDS011;1322;53.256;10.386;2022-08-01T15:32:07;6.23;;;2.50;;
2624;SDS011;1322;53.256;10.386;2022-08-01T15:34:34;7.30;;;2.07;;
2624;SDS011;1322;53.256;10.386;2022-08-01T15:37:01;8.33;;;2.50;;
2624;SDS011;1322;53.256;10.386;2022-08-01T15:39:27;5.97;;;2.17;;
2624;SDS011;1322;53.256;10.386;2022-08-01T15:41:53;6.43;;;1.83;;
2624;SDS011;1322;53.256;10.386;2022-08-01T15:44:19;8.73;;;1.83;;
2624;SDS011;1322;53.256;10.386;2022-08-01T15:46:46;8.83;;;2.03;;
2624;SDS011;1322;53.256;10.386;2022-08-01T15:49:13;5.93;;;1.90;;
2624;SDS011;1322;53.256;10.386;2022-08-01T15:51:39;5.20;;;3.43;;
2624;SDS011;1322;53.256;10.386;2022-08-01T15:54:05;8.00;;;2.30;;
2624;SDS011;1322;53.256;10.386;2022-08-01T15:56:32;2.40;;;1.43;;
2624;SDS011;1322;53.256;10.386;2022-08-01T15:58:57;4.67;;;2.10;;
2624;SDS011;1322;53.256;10.386;2022-08-01T16:01:23;5.60;;;2.07;;
2624;SDS011;1322;53.256;10.386;2022-08-01T16:03:50;4.83;;;1.90;;
2624;SDS011;1322;53.256;10.386;2022-08-01T16:06:20;4.33;;;1.87;;
2624;SDS011;1322;53.256;10.386;2022-08-01T16:08:46;8.30;;;2.07;;
2624;SDS011;1322;53.256;10.386;2022-08-01T16:11:11;6.10;;;2.40;;
2624;SDS011;1322;53.256;10.386;2022-08-01T16:13:37;4.80;;;2.00;;
2624;SDS011;1322;53.256;10.386;2022-08-01T16:16:06;3.43;;;1.57;;
2624;SDS011;1322;53.256;10.386;2022-08-01T16:18:32;5.37;;;2.00;;
2624;SDS011;1322;53.256;10.386;2022-08-01T16:20:58;8.40;;;2.00;;
2624;SDS011;1322;53.256;10.386;2022-08-01T16:23:24;7.73;;;2.13;;
2624;SDS011;1322;53.256;10.386;2022-08-01T16:25:50;7.07;;;2.03;;
2624;SDS011;1322;53.256;10.386;2022-08-01T16:28:17;4.73;;;1.70;;
2624;SDS011;1322;53.256;10.386;2022-08-01T16:30:43;4.03;;;1.80;;
2624;SDS011;1322;53.256;10.386;2022-08-01T16:33:09;5.10;;;1.97;;
2624;SDS011;1322;53.256;10.386;2022-08-01T16:35:35;6.50;;;2.20;;
2624;SDS011;1322;53.256;10.386;2022-08-01T16:38:01;8.23;;;2.10;;
2624;SDS011;1322;53.256;10.386;2022-08-01T16:40:27;5.80;;;1.50;;
2624;SDS011;1322;53.256;10.386;2022-08-01T16:42:52;4.50;;;1.77;;
2624;SDS011;1322;53.256;10.386;2022-08-01T16:45:18;4.40;;;1.90;;
2624;SDS011;1322;53.256;10.386;2022-08-01T16:47:45;6.53;;;2.73;;
2624;SDS011;1322;53.256;10.386;2022-08-01T16:50:11;4.87;;;1.70;;
2624;SDS011;1322;53.256;10.386;2022-08-01T16:52:37;6.70;;;2.73;;
2624;SDS011;1322;53.256;10.386;2022-08-01T16:55:03;4.03;;;1.90;;
2624;SDS011;1322;53.256;10.386;2022-08-01T16:57:29;5.80;;;1.90;;
2624;SDS011;1322;53.256;10.386;2022-08-01T17:00:01;7.40;;;1.63;;
2624;SDS011;1322;53.256;10.386;2022-08-01T17:02:31;7.60;;;1.70;;
2624;SDS011;1322;53.256;10.386;2022-08-01T17:04:57;4.60;;;2.00;;
2624;SDS011;1322;53.256;10.386;2022-08-01T17:07:22;6.53;;;1.80;;
2624;SDS011;1322;53.256;10.386;2022-08-01T17:09:48;6.07;;;1.80;;
2624;SDS011;1322;53.256;10.386;2022-08-01T17:12:14;3.63;;;1.60;;
2624;SDS011;1322;53.256;10.386;2022-08-01T17:14:39;3.93;;;2.50;;
2624;SDS011;1322;53.256;10.386;2022-08-01T17:17:09;4.70;;;2.70;;
2624;SDS011;1322;53.256;10.386;2022-08-01T17:19:34;3.10;;;1.83;;
2624;SDS011;1322;53.256;10.386;2022-08-01T17:22:00;7.47;;;2.37;;
2624;SDS011;1322;53.256;10.386;2022-08-01T17:24:26;6.93;;;2.67;;
2624;SDS011;1322;53.256;10.386;2022-08-01T17:26:52;4.27;;;1.47;;
2624;SDS011;1322;53.256;10.386;2022-08-01T17:29:18;3.90;;;1.80;;
2624;SDS011;1322;53.256;10.386;2022-08-01T17:31:43;5.57;;;1.80;;
2624;SDS011;1322;53.256;10.386;2022-08-01T17:34:09;6.87;;;2.40;;
2624;SDS011;1322;53.256;10.386;2022-08-01T17:36:34;5.77;;;2.30;;
2624;SDS011;1322;53.256;10.386;2022-08-01T17:39:00;4.67;;;2.27;;
2624;SDS011;1322;53.256;10.386;2022-08-01T17:41:27;4.87;;;2.73;;
2624;SDS011;1322;53.256;10.386;2022-08-01T17:43:52;8.07;;;2.43;;
2624;SDS011;1322;53.256;10.386;2022-08-01T17:46:18;4.43;;;1.80;;
2624;SDS011;1322;53.256;10.386;2022-08-01T17:48:44;3.70;;;1.50;;
2624;SDS011;1322;53.256;10.386;2022-08-01T17:51:10;4.93;;;2.23;;
2624;SDS011;1322;53.256;10.386;2022-08-01T17:53:36;2.30;;;1.53;;
2624;SDS011;1322;53.256;10.386;2022-08-01T17:56:02;11.77;;;3.10;;
2624;SDS011;1322;53.256;10.386;2022-08-01T17:58:29;5.63;;;1.60;;
2624;SDS011;1322;53.256;10.386;2022-08-01T18:00:55;4.10;;;1.50;;
2624;SDS011;1322;53.256;10.386;2022-08-01T18:03:21;7.60;;;1.70;;
2624;SDS011;1322;53.256;10.386;2022-08-01T18:05:46;6.80;;;1.90;;
2624;SDS011;1322;53.256;10.386;2022-08-01T18:08:12;7.33;;;1.97;;
2624;SDS011;1322;53.256;10.386;2022-08-01T18:10:38;5.57;;;1.90;;
2624;SDS011;1322;53.256;10.386;2022-08-01T18:13:04;7.20;;;2.30;;
2624;SDS011;1322;53.256;10.386;2022-08-01T18:15:29;8.90;;;1.83;;
2624;SDS011;1322;53.256;10.386;2022-08-01T18:17:55;5.00;;;2.40;;
2624;SDS011;1322;53.256;10.386;2022-08-01T18:20:22;6.57;;;2.53;;
2624;SDS011;1322;53.256;10.386;2022-08-01T18:22:48;4.00;;;2.00;;
2624;SDS011;1322;53.256;10.386;2022-08-01T18:25:14;8.60;;;2.40;;
2624;SDS011;1322;53.256;10.386;2022-08-01T18:27:39;4.73;;;1.50;;
2624;SDS011;1322;53.256;10.386;2022-08-01T18:30:05;6.37;;;2.37;;
2624;SDS011;1322;53.256;10.386;2022-08-01T18:32:31;5.90;;;2.30;;
2624;SDS011;1322;53.256;10.386;2022-08-01T18:34:57;9.80;;;2.33;;
2624;SDS011;1322;53.256;10.386;2022-08-01T18:37:23;6.57;;;1.83;;
2624;SDS011;1322;53.256;10.386;2022-08-01T18:39:49;4.70;;;2.17;;
2624;SDS011;1322;53.256;10.386;2022-08-01T18:42:15;5.27;;;2.43;;
2624;SDS011;1322;53.256;10.386;2022-08-01T18:44:41;11.03;;;2.23;;
2624;SDS011;1322;53.256;10.386;2022-08-01T18:47:07;4.77;;;2.20;;
2624;SDS011;1322;53.256;10.386;2022-08-01T18:49:32;7.67;;;2.30;;
2624;SDS011;1322;53.256;10.386;2022-08-01T18:51:58;3.67;;;2.27;;
2624;SDS011;1322;53.256;10.386;2022-08-01T18:54:24;5.60;;;3.03;;
2624;SDS011;1322;53.256;10.386;2022-08-01T18:56:51;9.90;;;2.70;;
2624;SDS011;1322;53.256;10.386;2022-08-01T18:59:17;7.63;;;3.50;;
2624;SDS011;1322;53.256;10.386;2022-08-01T19:01:42;7.57;;;2.57;;
2624;SDS011;1322;53.256;10.386;2022-08-01T19:04:08;7.13;;;2.80;;
2624;SDS011;1322;53.256;10.386;2022-08-01T19:06:35;10.77;;;2.67;;
2624;SDS011;1322;53.256;10.386;2022-08-01T19:09:02;5.37;;;2.40;;
2624;SDS011;1322;53.256;10.386;2022-08-01T19:11:28;7.67;;;2.17;;
2624;SDS011;1322;53.256;10.386;2022-08-01T19:13:55;8.03;;;2.77;;
2624;SDS011;1322;53.256;10.386;2022-08-01T19:16:21;5.47;;;1.97;;
2624;SDS011;1322;53.256;10.386;2022-08-01T19:18:46;4.03;;;2.40;;
2624;SDS011;1322;53.256;10.386;2022-08-01T19:21:12;3.63;;;2.03;;
2624;SDS011;1322;53.256;10.386;2022-08-01T19:23:37;6.87;;;2.40;;
2624;SDS011;1322;53.256;10.386;2022-08-01T19:26:24;9.43;;;3.17;;
2624;SDS011;1322;53.256;10.386;2022-08-01T19:28:52;6.03;;;3.10;;
2624;SDS011;1322;53.256;10.386;2022-08-01T19:31:21;7.70;;;3.33;;
2624;SDS011;1322;53.256;10.386;2022-08-01T19:33:54;8.83;;;2.63;;
2624;SDS011;1322;53.256;10.386;2022-08-01T19:36:21;5.47;;;2.63;;
2624;SDS011;1322;53.256;10.386;2022-08-01T19:38:47;6.03;;;2.73;;
2624;SDS011;1322;53.256;10.386;2022-08-01T19:41:14;9.00;;;2.53;;
2624;SDS011;1322;53.256;10.386;2022-08-01T19:43:40;8.67;;;2.57;;
2624;SDS011;1322;53.256;10.386;2022-08-01T19:46:07;6.70;;;3.00;;
2624;SDS011;1322;53.256;10.386;2022-08-01T19:48:36;8.87;;;2.60;;
2624;SDS011;1322;53.256;10.386;2022-08-01T19:51:03;6.63;;;2.70;;
2624;SDS011;1322;53.256;10.386;2022-08-01T19:53:43;6.10;;;2.30;;
2624;SDS011;1322;53.256;10.386;2022-08-01T19:56:12;9.33;;;2.13;;
2624;SDS011;1322;53.256;10.386;2022-08-01T19:58:40;6.00;;;2.40;;
2624;SDS011;1322;53.256;10.386;2022-08-01T20:01:14;8.70;;;2.83;;
2624;SDS011;1322;53.256;10.386;2022-08-01T20:03:41;6.00;;;2.30;;
2624;SDS011;1322;53.256;10.386;2022-08-01T20:06:08;6.33;;;2.37;;
2624;SDS011;1322;53.256;10.386;2022-08-01T20:08:35;7.00;;;2.10;;
2624;SDS011;1322;53.256;10.386;2022-08-01T20:11:02;5.80;;;2.53;;
2624;SDS011;1322;53.256;10.386;2022-08-01T20:13:31;4.87;;;2.20;;
2624;SDS011;1322;53.256;10.386;2022-08-01T20:15:57;5.17;;;2.80;;
2624;SDS011;1322;53.256;10.386;2022-08-01T20:18:24;6.27;;;2.70;;
2624;SDS011;1322;53.256;10.386;2022-08-01T20:20:51;7.07;;;2.50;;
2624;SDS011;1322;53.256;10.386;2022-08-01T20:23:21;9.30;;;2.80;;
2624;SDS011;1322;53.256;10.386;2022-08-01T20:25:51;7.67;;;3.27;;
2624;SDS011;1322;53.256;10.386;2022-08-01T20:28:23;6.77;;;2.70;;
2624;SDS011;1322;53.256;10.386;2022-08-01T20:30:56;10.43;;;2.70;;
2624;SDS011;1322;53.256;10.386;2022-08-01T20:33:24;5.23;;;2.13;;
2624;SDS011;1322;53.256;10.386;2022-08-01T20:35:51;5.80;;;2.07;;
2624;SDS011;1322;53.256;10.386;2022-08-01T20:38:19;3.30;;;2.03;;
2624;SDS011;1322;53.256;10.386;2022-08-01T20:40:49;7.30;;;2.43;;
2624;SDS011;1322;53.256;10.386;2022-08-01T20:43:17;7.20;;;2.40;;
2624;SDS011;1322;53.256;10.386;2022-08-01T20:45:45;7.57;;;1.93;;
2624;SDS011;1322;53.256;10.386;2022-08-01T20:48:11;9.17;;;2.27;;
2624;SDS011;1322;53.256;10.386;2022-08-01T20:50:37;4.43;;;2.17;;
2624;SDS011;1322;53.256;10.386;2022-08-01T20:53:23;4.83;;;2.77;;
2624;SDS011;1322;53.256;10.386;2022-08-01T20:55:51;5.53;;;2.53;;
2624;SDS011;1322;53.256;10.386;2022-08-01T20:58:29;7.33;;;2.37;;
2624;SDS011;1322;53.256;10.386;2022-08-01T21:01:19;7.67;;;2.20;;
2624;SDS011;1322;53.256;10.386;2022-08-01T21:06:40;5.90;;;2.20;;
2624;SDS011;1322;53.256;10.386;2022-08-01T21:09:09;6.00;;;2.73;;
2624;SDS011;1322;53.256;10.386;2022-08-01T21:11:38;5.17;;;2.40;;
2624;SDS011;1322;53.256;10.386;2022-08-01T21:14:12;8.37;;;2.17;;
2624;SDS011;1322;53.256;10.386;2022-08-01T21:16:45;6.60;;;3.00;;
2624;SDS011;1322;53.256;10.386;2022-08-01T21:19:24;5.60;;;2.53;;
2624;SDS011;1322;53.256;10.386;2022-08-01T21:22:10;6.67;;;2.60;;
2624;SDS011;1322;53.256;10.386;2022-08-01T21:24:53;4.07;;;2.00;;
2624;SDS011;1322;53.256;10.386;2022-08-01T21:27:23;3.43;;;2.50;;
2624;SDS011;1322;53.256;10.386;2022-08-01T21:29:50;11.27;;;2.60;;
2624;SDS011;1322;53.256;10.386;2022-08-01T21:32:16;3.70;;;2.40;;
2624;SDS011;1322;53.256;10.386;2022-08-01T21:34:45;8.83;;;2.20;;
2624;SDS011;1322;53.256;10.386;2022-08-01T21:37:13;5.43;;;2.57;;
2624;SDS011;1322;53.256;10.386;2022-08-01T21:39:42;5.83;;;2.20;;
2624;SDS011;1322;53.256;10.386;2022-08-01T21:42:10;4.83;;;2.60;;
2624;SDS011;1322;53.256;10.386;2022-08-01T21:44:44;6.63;;;2.40;;
2624;SDS011;1322;53.256;10.386;2022-08-01T21:47:11;8.80;;;2.00;;
2624;SDS011;1322;53.256;10.386;2022-08-01T21:49:38;5.73;;;2.67;;
2624;SDS011;1322;53.256;10.386;2022-08-01T21:52:06;3.10;;;1.80;;
2624;SDS011;1322;53.256;10.386;2022-08-01T22:00:29;10.03;;;3.40;;
2624;SDS011;1322;53.256;10.386;2022-08-01T22:03:14;4.23;;;2.23;;
2624;SDS011;1322;53.256;10.386;2022-08-01T22:05:45;5.40;;;1.90;;
2624;SDS011;1322;53.256;10.386;2022-08-01T22:08:13;6.30;;;2.37;;
2624;SDS011;1322;53.256;10.386;2022-08-01T22:10:44;3.50;;;1.73;;
2624;SDS011;1322;53.256;10.386;2022-08-01T22:13:10;6.67;;;3.93;;
2624;SDS011;1322;53.256;10.386;2022-08-01T22:15:36;3.43;;;2.00;;
2624;SDS011;1322;53.256;10.386;2022-08-01T22:18:06;6.20;;;2.53;;
2624;SDS011;1322;53.256;10.386;2022-08-01T22:20:32;4.40;;;2.23;;
2624;SDS011;1322;53.256;10.386;2022-08-01T22:22:59;5.23;;;2.40;;
2624;SDS011;1322;53.256;10.386;2022-08-01T22:25:25;5.43;;;1.87;;
2624;SDS011;1322;53.256;10.386;2022-08-01T22:27:53;5.00;;;2.30;;
2624;SDS011;1322;53.256;10.386;2022-08-01T22:30:19;7.33;;;2.90;;
2624;SDS011;1322;53.256;10.386;2022-08-01T22:32:45;9.13;;;2.20;;
2624;SDS011;1322;53.256;10.386;2022-08-01T22:35:12;6.00;;;3.07;;
2624;SDS011;1322;53.256;10.386;2022-08-01T22:37:39;3.47;;;2.37;;
2624;SDS011;1322;53.256;10.386;2022-08-01T22:40:10;6.70;;;2.50;;
2624;SDS011;1322;53.256;10.386;2022-08-01T22:42:38;8.30;;;3.50;;
2624;SDS011;1322;53.256;10.386;2022-08-01T22:48:43;4.10;;;2.10;;
2624;SDS011;1322;53.256;10.386;2022-08-01T22:53:59;4.57;;;2.87;;
2624;SDS011;1322;53.256;10.386;2022-08-01T22:56:28;6.80;;;1.97;;
2624;SDS011;1322;53.256;10.386;2022-08-01T22:58:56;5.60;;;2.40;;
2624;SDS011;1322;53.256;10.386;2022-08-01T23:01:27;6.50;;;2.00;;
2624;SDS011;1322;53.256;10.386;2022-08-01T23:03:54;5.40;;;2.30;;
2624;SDS011;1322;53.256;10.386;2022-08-01T23:06:23;8.70;;;2.30;;
2624;SDS011;1322;53.256;10.386;2022-08-01T23:08:59;7.40;;;2.30;;
2624;SDS011;1322;53.256;10.386;2022-08-01T23:11:30;8.73;;;2.33;;
2624;SDS011;1322;53.256;10.386;2022-08-01T23:13:57;7.00;;;2.47;;
2624;SDS011;1322;53.256;10.386;2022-08-01T23:16:25;7.37;;;2.70;;
2624;SDS011;1322;53.256;10.386;2022-08-01T23:18:54;7.83;;;2.23;;
2624;SDS011;1322;53.256;10.386;2022-08-01T23:21:23;5.13;;;2.07;;
2624;SDS011;1322;53.256;10.386;2022-08-01T23:23:51;5.83;;;2.30;;
2624;SDS011;1322;53.256;10.386;2022-08-01T23:26:27;4.30;;;2.40;;
2624;SDS011;1322;53.256;10.386;2022-08-01T23:28:54;10.10;;;2.43;;
2624;SDS011;1322;53.256;10.386;2022-08-01T23:31:20;5.40;;;1.97;;
2624;SDS011;1322;53.256;10.386;2022-08-01T23:33:46;5.53;;;2.20;;
2624;SDS011;1322;53.256;10.386;2022-08-01T23:36:12;6.40;;;2.10;;
2624;SDS011;1322;53.256;10.386;2022-08-01T23:38:41;7.10;;;2.83;;
2624;SDS011;1322;53.256;10.386;2022-08-01T23:41:08;3.83;;;2.20;;
2624;SDS011;1322;53.256;10.386;2022-08-01T23:43:39;4.50;;;2.10;;
2624;SDS011;1322;53.256;10.386;2022-08-01T23:46:08;6.53;;;2.13;;
2624;SDS011;1322;53.256;10.386;2022-08-01T23:48:35;10.10;;;2.50;;
2624;SDS011;1322;53.256;10.386;2022-08-01T23:51:02;5.90;;;2.17;;
2624;SDS011;1322;53.256;10.386;2022-08-01T23:53:29;2.60;;;1.97;;
2624;SDS011;1322;53.256;10.386;2022-08-01T23:55:55;5.40;;;2.00;;
2624;SDS011;1322;53.256;10.386;2022-08-01T23:58:20;3.73;;;1.80;;
